Time;durP1;ratioP1;P1;durP2;ratioP2;P2;SDS_P1;SDS_P2;PMS_P1;PMS_P2;Temp;Humidity;BMP_temperature;BMP_pressure;BME280_temperature;BME280_humidity;BME280_pressure;Samples;Min_cycle;Max_cycle;Signal;HPM_P1;HPM_P2
2021/11/02 00:01:27;;;;;;;3.47;2.00;;;12.00;99.90;;;;;;5001664;28;20186;-83
2021/11/02 00:03:55;;;;;;;6.00;2.60;;;12.00;99.90;;;;;;4986304;28;20209;-83
2021/11/02 00:06:22;;;;;;;5.47;2.33;;;12.00;99.90;;;;;;5020574;28;20425;-82
2021/11/02 00:08:48;;;;;;;5.05;2.78;;;12.00;99.90;;;;;;5020437;28;20166;-83
2021/11/02 00:11:13;;;;;;;3.70;2.35;;;12.00;99.90;;;;;;5003322;28;20198;-84
2021/11/02 00:13:45;;;;;;;4.80;2.43;;;12.00;99.90;;;;;;5001532;28;20534;-83
2021/11/02 00:16:13;;;;;;;4.03;2.53;;;12.00;99.90;;;;;;4989413;28;20217;-83
2021/11/02 00:18:44;;;;;;;4.30;2.80;;;12.10;99.90;;;;;;5005777;28;20207;-82
2021/11/02 00:21:10;;;;;;;3.60;2.75;;;12.10;99.90;;;;;;5017759;28;20163;-82
2021/11/02 00:23:37;;;;;;;3.00;1.97;;;12.10;99.90;;;;;;5020262;28;20181;-83
2021/11/02 00:26:05;;;;;;;6.80;2.35;;;12.10;99.90;;;;;;5002600;28;20425;-83
2021/11/02 00:28:30;;;;;;;5.20;3.05;;;12.10;99.90;;;;;;5019090;28;20167;-83
2021/11/02 00:30:56;;;;;;;3.47;2.90;;;12.00;99.90;;;;;;5019229;28;20727;-82
2021/11/02 00:33:22;;;;;;;3.93;2.70;;;12.00;99.90;;;;;;5001324;28;20220;-83
2021/11/02 00:35:47;;;;;;;5.17;3.00;;;12.00;99.90;;;;;;4986026;28;20210;-83
2021/11/02 00:38:13;;;;;;;2.90;2.50;;;12.00;99.90;;;;;;5019995;28;20182;-84
2021/11/02 00:40:43;;;;;;;2.90;2.60;;;12.00;99.90;;;;;;5002044;28;20174;-84
2021/11/02 00:43:10;;;;;;;4.10;3.00;;;12.00;99.90;;;;;;5002914;28;20180;-83
2021/11/02 00:45:36;;;;;;;3.47;2.85;;;11.90;99.90;;;;;;5020722;28;20186;-84
2021/11/02 00:48:05;;;;;;;4.05;2.78;;;11.90;99.90;;;;;;5004665;28;20688;-83
2021/11/02 00:50:34;;;;;;;7.68;3.28;;;12.00;99.90;;;;;;5026208;28;20166;-83
2021/11/02 00:53:01;;;;;;;3.60;2.85;;;12.00;99.90;;;;;;5015878;28;20182;-84
2021/11/02 00:55:27;;;;;;;3.25;2.75;;;12.00;99.90;;;;;;5018767;28;20206;-84
2021/11/02 00:57:52;;;;;;;2.87;2.57;;;11.90;99.90;;;;;;5037392;28;20182;-84
2021/11/02 01:00:19;;;;;;;4.80;2.13;;;11.90;99.90;;;;;;5037129;28;20303;-84
2021/11/02 01:02:45;;;;;;;5.20;2.65;;;11.90;99.90;;;;;;5034321;28;20197;-84
2021/11/02 01:05:13;;;;;;;4.97;2.92;;;11.90;99.90;;;;;;5003389;28;20229;-84
2021/11/02 01:07:39;;;;;;;5.25;2.60;;;11.90;99.90;;;;;;5038053;28;20355;-84
2021/11/02 01:10:12;;;;;;;4.10;3.00;;;11.80;99.90;;;;;;5037528;28;20170;-83
2021/11/02 01:12:40;;;;;;;4.22;3.10;;;11.90;99.90;;;;;;5032987;28;20216;-82
2021/11/02 01:15:06;;;;;;;6.15;3.60;;;11.90;99.90;;;;;;5030378;28;20216;-83
2021/11/02 01:17:31;;;;;;;3.63;2.85;;;11.90;99.90;;;;;;5024106;28;20166;-82
2021/11/02 01:19:57;;;;;;;3.60;2.97;;;11.90;99.90;;;;;;5002492;28;20178;-83
2021/11/02 01:22:23;;;;;;;6.73;3.50;;;11.90;99.90;;;;;;5003022;28;20274;-83
2021/11/02 01:24:48;;;;;;;3.53;2.90;;;11.70;99.90;;;;;;5023013;28;20198;-83
2021/11/02 01:27:14;;;;;;;5.10;3.40;;;11.70;99.90;;;;;;5004454;28;20220;-83
2021/11/02 01:29:40;;;;;;;4.63;3.07;;;11.70;99.90;;;;;;4990275;28;20223;-83
2021/11/02 01:32:06;;;;;;;5.00;2.90;;;11.70;99.90;;;;;;5024704;28;20186;-82
2021/11/02 01:34:31;;;;;;;3.50;2.97;;;11.70;99.90;;;;;;5022449;28;20202;-83
2021/11/02 01:37:02;;;;;;;5.57;4.10;;;11.70;99.90;;;;;;5017761;28;20197;-83
2021/11/02 01:39:28;;;;;;;5.40;3.72;;;11.70;99.90;;;;;;5000800;28;20408;-83
2021/11/02 01:41:54;;;;;;;5.90;3.67;;;11.70;99.90;;;;;;5000510;28;20166;-84
2021/11/02 01:44:20;;;;;;;5.97;3.83;;;11.70;99.90;;;;;;4999539;28;20205;-83
2021/11/02 01:46:46;;;;;;;7.18;3.50;;;11.80;99.90;;;;;;5017871;28;20178;-84
2021/11/02 01:49:13;;;;;;;5.05;3.45;;;11.80;99.90;;;;;;5000285;28;20182;-83
2021/11/02 01:51:40;;;;;;;4.22;3.83;;;11.80;99.90;;;;;;5000861;28;20170;-83
2021/11/02 01:54:06;;;;;;;6.38;4.47;;;11.80;99.90;;;;;;4970475;28;20201;-83
2021/11/02 01:56:33;;;;;;;5.95;3.35;;;11.90;99.90;;;;;;4992479;28;20612;-83
2021/11/02 01:59:00;;;;;;;4.65;3.17;;;11.80;99.90;;;;;;5023796;28;20598;-83
2021/11/02 02:02:01;;;;;;;4.25;3.17;;;11.90;99.90;;;;;;5007630;28;20165;-83
2021/11/02 02:04:33;;;;;;;9.25;3.80;;;11.90;99.90;;;;;;5016296;28;20202;-85
2021/11/02 02:07:08;;;;;;;4.97;3.55;;;11.80;99.90;;;;;;5025996;28;20158;-83
2021/11/02 02:09:41;;;;;;;5.03;3.40;;;11.90;99.90;;;;;;5023353;28;20169;-82
2021/11/02 02:12:29;;;;;;;4.25;3.33;;;11.80;99.90;;;;;;5005079;28;20181;-83
2021/11/02 02:14:58;;;;;;;6.20;3.40;;;11.80;99.90;;;;;;5003626;28;20221;-83
2021/11/02 02:17:31;;;;;;;6.38;3.50;;;11.80;99.90;;;;;;5003268;28;20549;-83
2021/11/02 02:20:08;;;;;;;12.55;3.90;;;11.80;99.90;;;;;;5003743;28;20308;-84
2021/11/02 02:23:02;;;;;;;6.72;3.40;;;11.80;99.90;;;;;;5023408;28;20179;-83
2021/11/02 02:25:47;;;;;;;9.20;4.10;;;11.80;99.90;;;;;;5009351;28;20595;-84
2021/11/02 02:28:15;;;;;;;6.10;3.50;;;11.80;99.90;;;;;;5021130;28;20196;-83
2021/11/02 02:31:12;;;;;;;4.88;3.03;;;11.70;99.90;;;;;;5020668;28;20220;-84
2021/11/02 02:33:56;;;;;;;4.78;3.05;;;11.70;99.90;;;;;;5020399;28;20194;-83
2021/11/02 02:36:24;;;;;;;5.90;3.47;;;11.60;99.90;;;;;;5003129;28;20256;-83
2021/11/02 02:38:52;;;;;;;5.63;3.63;;;11.60;99.90;;;;;;5002896;28;20577;-83
2021/11/02 02:41:21;;;;;;;5.88;3.40;;;11.60;99.90;;;;;;5020676;28;20517;-82
2021/11/02 02:43:48;;;;;;;6.40;2.92;;;11.70;99.90;;;;;;5003155;28;20209;-83
2021/11/02 02:46:15;;;;;;;6.88;3.60;;;11.60;99.90;;;;;;5005013;28;20548;-83
2021/11/02 02:48:43;;;;;;;6.28;3.50;;;11.70;99.90;;;;;;5010430;28;20205;-83
2021/11/02 02:51:11;;;;;;;6.25;4.13;;;11.70;99.90;;;;;;5032662;28;20180;-82
2021/11/02 02:53:42;;;;;;;5.38;3.70;;;11.70;99.90;;;;;;5022206;28;20190;-82
2021/11/02 02:56:09;;;;;;;4.25;3.65;;;11.60;99.90;;;;;;5023738;28;20217;-83
2021/11/02 02:58:46;;;;;;;8.68;4.20;;;11.70;99.90;;;;;;5006052;28;20269;-83
2021/11/02 03:01:15;;;;;;;8.45;4.35;;;11.70;99.90;;;;;;5005274;28;20170;-83
2021/11/02 03:03:50;;;;;;;5.85;3.55;;;11.70;99.90;;;;;;5020699;28;20170;-83
2021/11/02 03:06:18;;;;;;;7.05;4.00;;;11.70;99.90;;;;;;5020496;28;20193;-83
2021/11/02 03:08:48;;;;;;;5.45;3.05;;;11.70;99.90;;;;;;5021913;28;20221;-83
2021/11/02 03:11:15;;;;;;;5.07;3.80;;;11.80;99.90;;;;;;5003950;28;20177;-82
2021/11/02 03:13:46;;;;;;;4.60;3.58;;;11.70;99.90;;;;;;5021735;28;20166;-82
2021/11/02 03:16:16;;;;;;;7.18;3.63;;;11.70;99.90;;;;;;5022424;28;20213;-82
2021/11/02 03:44:09;;;;;;;5.97;3.60;;;11.70;99.90;;;;;;5021718;28;20301;-84
2021/11/02 03:54:38;;;;;;;5.57;4.30;;;11.80;99.90;;;;;;5021563;28;20213;-85
2021/11/02 04:25:11;;;;;;;8.18;4.95;;;11.50;99.90;;;;;;5020895;28;20608;-84
2021/11/02 05:51:44;;;;;;;8.10;5.07;;;11.60;99.90;;;;;;5021326;28;20178;-84
2021/11/02 06:01:50;;;;;;;9.37;5.67;;;11.70;99.90;;;;;;5026371;28;20174;-83
2021/11/02 06:07:21;;;;;;;12.65;5.82;;;11.70;99.90;;;;;;5005602;28;20178;-84
2021/11/02 06:09:58;;;;;;;9.35;5.28;;;11.70;99.90;;;;;;5020811;28;20253;-83
2021/11/02 06:29:23;;;;;;;13.77;5.75;;;11.60;99.90;;;;;;5022289;28;20185;-83
2021/11/02 06:37:18;;;;;;;10.77;5.45;;;11.60;99.90;;;;;;5020215;28;20168;-80
2021/11/02 06:40:05;;;;;;;10.45;5.55;;;11.70;99.90;;;;;;5007058;28;20189;-82
2021/11/02 06:42:49;;;;;;;12.65;6.70;;;11.70;99.90;;;;;;5003893;28;20265;-83
2021/11/02 06:45:38;;;;;;;16.33;6.00;;;11.70;99.90;;;;;;5003371;28;20198;-83
2021/11/02 06:53:53;;;;;;;11.07;6.38;;;11.70;99.90;;;;;;5016505;28;20254;-83
2021/11/02 06:56:58;;;;;;;7.53;4.55;;;11.70;99.90;;;;;;5022011;28;20229;-84
2021/11/02 06:59:55;;;;;;;16.60;6.00;;;11.70;99.90;;;;;;5004230;28;20174;-84
2021/11/02 07:11:00;;;;;;;8.48;5.63;;;11.70;99.90;;;;;;5023067;28;20181;-85
2021/11/02 07:19:11;;;;;;;10.13;6.00;;;11.80;99.90;;;;;;5008895;28;20186;-82
2021/11/02 07:21:53;;;;;;;7.20;4.30;;;11.80;99.90;;;;;;5010830;28;20171;-85
2021/11/02 07:24:33;;;;;;;10.50;5.45;;;11.80;99.90;;;;;;5005901;28;20273;-82
2021/11/02 08:45:40;;;;;;;10.30;6.30;;;11.80;99.90;;;;;;5113090;28;20255;-83
2021/11/02 08:48:05;;;;;;;11.40;6.28;;;11.80;99.90;;;;;;5094168;28;20163;-82
2021/11/02 08:50:41;;;;;;;14.60;6.20;;;11.70;99.90;;;;;;5095037;28;20316;-83
2021/11/02 08:53:12;;;;;;;8.93;5.63;;;11.80;99.90;;;;;;5111241;28;20175;-81
2021/11/02 08:55:40;;;;;;;11.75;5.97;;;11.70;99.90;;;;;;5135122;28;20220;-81
2021/11/02 08:58:29;;;;;;;;;;;;;;;;;;;;;
2021/11/02 09:01:02;;;;;;;11.45;6.60;;;11.70;99.90;;;;;;5134140;28;20167;-82
2021/11/02 09:03:36;;;;;;;9.38;6.82;;;11.80;99.90;;;;;;5133653;28;20179;-84
2021/11/02 09:06:06;;;;;;;11.50;5.82;;;11.90;99.90;;;;;;5132664;28;20171;-83
2021/11/02 09:08:39;;;;;;;11.05;6.30;;;11.90;99.90;;;;;;5134589;28;20151;-81
2021/11/02 09:11:06;;;;;;;11.15;6.25;;;12.00;99.90;;;;;;5133082;28;20194;-84
2021/11/02 09:13:34;;;;;;;11.73;6.50;;;12.00;99.90;;;;;;5125280;28;20178;-82
2021/11/02 09:16:02;;;;;;;10.88;6.45;;;12.00;99.90;;;;;;5097266;28;20186;-82
2021/11/02 09:18:29;;;;;;;10.60;5.82;;;12.00;99.90;;;;;;5111750;28;20175;-84
2021/11/02 09:20:59;;;;;;;14.45;7.50;;;12.00;99.90;;;;;;5105857;28;20190;-85
2021/11/02 09:23:34;;;;;;;13.70;8.05;;;12.00;99.90;;;;;;5113375;28;20167;-83
2021/11/02 09:26:02;;;;;;;11.07;6.57;;;12.00;99.90;;;;;;5097367;28;20194;-84
2021/11/02 09:28:28;;;;;;;16.83;7.85;;;12.00;99.90;;;;;;5097146;28;20225;-84
2021/11/02 09:30:54;;;;;;;19.50;8.75;;;12.10;99.90;;;;;;5113855;28;20227;-84
2021/11/02 09:33:23;;;;;;;17.25;7.78;;;12.10;99.90;;;;;;5113544;28;20529;-83
2021/11/02 09:36:04;;;;;;;19.38;9.20;;;12.10;99.90;;;;;;5108776;28;20251;-85
2021/11/02 09:38:43;;;;;;;15.07;7.90;;;12.20;99.90;;;;;;5120318;28;20171;-84
2021/11/02 09:41:35;;;;;;;20.38;9.48;;;12.20;99.90;;;;;;5117346;28;20182;-82
2021/11/02 09:44:33;;;;;;;19.17;9.25;;;12.20;99.90;;;;;;5116950;28;20198;-82
2021/11/02 09:47:31;;;;;;;18.15;8.80;;;12.20;99.90;;;;;;5112029;28;20198;-82
2021/11/02 09:50:14;;;;;;;19.33;9.65;;;12.20;99.90;;;;;;5113167;28;20217;-82
2021/11/02 09:53:12;;;;;;;19.75;10.45;;;12.30;99.90;;;;;;5108766;28;20179;-81
2021/11/02 09:56:15;;;;;;;20.80;10.13;;;12.30;99.90;;;;;;5086117;28;20227;-82
2021/11/02 09:59:20;;;;;;;17.42;10.40;;;12.30;99.90;;;;;;5087026;28;20274;-83
2021/11/02 10:02:18;;;;;;;20.35;9.50;;;12.20;99.90;;;;;;5100181;28;20172;-83
2021/11/02 10:05:14;;;;;;;15.57;9.55;;;12.20;99.90;;;;;;5094272;28;20196;-83
2021/11/02 10:08:05;;;;;;;22.98;10.40;;;12.20;99.90;;;;;;5099657;28;20183;-83
2021/11/02 10:11:15;;;;;;;22.42;9.65;;;12.20;99.90;;;;;;5102034;28;20658;-83
2021/11/02 10:14:10;;;;;;;19.92;9.90;;;12.20;99.90;;;;;;5097406;28;20167;-81
2021/11/02 10:16:42;;;;;;;19.45;9.95;;;12.20;99.90;;;;;;5095711;28;20168;-83
2021/11/02 10:19:42;;;;;;;19.83;8.88;;;12.20;99.90;;;;;;5093996;28;20639;-84
2021/11/02 10:22:17;;;;;;;22.35;9.73;;;12.20;99.90;;;;;;5094325;28;20175;-82
2021/11/02 10:24:57;;;;;;;18.58;10.05;;;12.20;99.90;;;;;;5092876;28;20194;-83
2021/11/02 10:27:30;;;;;;;20.52;8.88;;;12.30;99.90;;;;;;5095206;28;20183;-82
2021/11/02 10:30:22;;;;;;;15.98;8.43;;;12.30;99.90;;;;;;5093032;28;20221;-82
2021/11/02 10:32:48;;;;;;;13.95;8.40;;;12.30;99.90;;;;;;5095340;28;20594;-83
2021/11/02 10:35:34;;;;;;;14.00;8.03;;;12.40;99.90;;;;;;5095781;28;20201;-82
2021/11/02 10:38:10;;;;;;;13.20;7.63;;;12.40;99.90;;;;;;5096807;28;20491;-83
2021/11/02 10:40:53;;;;;;;15.70;8.27;;;12.50;99.90;;;;;;5094394;28;20167;-83
2021/11/02 10:43:31;;;;;;;16.10;8.95;;;12.50;99.90;;;;;;5093750;28;20212;-83
2021/11/02 10:46:06;;;;;;;14.80;7.85;;;12.50;99.90;;;;;;5093679;28;20645;-83
2021/11/02 10:48:47;;;;;;;18.92;9.20;;;12.60;99.90;;;;;;5094403;28;20274;-83
2021/11/02 10:51:39;;;;;;;11.55;7.38;;;12.70;99.90;;;;;;5094476;28;20199;-83
2021/11/02 10:54:04;;;;;;;13.55;7.55;;;12.90;99.90;;;;;;5076687;28;20203;-83
2021/11/02 10:57:06;;;;;;;15.53;10.27;;;12.90;99.90;;;;;;5093893;28;20177;-83
2021/11/02 10:59:32;;;;;;;11.88;7.50;;;12.90;99.90;;;;;;5097411;28;20162;-83
2021/11/02 11:01:59;;;;;;;13.00;8.52;;;13.00;99.90;;;;;;5069802;28;20712;-84
2021/11/02 11:04:32;;;;;;;13.20;8.50;;;12.90;99.90;;;;;;5089086;28;20196;-83
2021/11/02 11:06:58;;;;;;;14.25;8.07;;;12.90;99.90;;;;;;5081327;28;20179;-83
2021/11/02 11:09:28;;;;;;;15.43;9.20;;;12.90;99.90;;;;;;5100257;28;20646;-83
2021/11/02 11:11:55;;;;;;;14.07;7.60;;;12.90;99.90;;;;;;5092700;28;20199;-83
2021/11/02 11:14:28;;;;;;;13.25;7.90;;;12.90;99.90;;;;;;5050851;28;20263;-83
2021/11/02 11:16:57;;;;;;;13.38;7.55;;;12.80;99.90;;;;;;5093133;28;20321;-83
2021/11/02 11:19:30;;;;;;;14.00;8.73;;;12.80;99.90;;;;;;5096115;28;20662;-83
2021/11/02 11:21:59;;;;;;;11.70;7.50;;;13.00;99.90;;;;;;5094618;28;20167;-82
2021/11/02 11:24:42;;;;;;;9.82;7.15;;;13.00;99.90;;;;;;5094788;28;20206;-82
2021/11/02 11:27:09;;;;;;;9.80;7.32;;;13.00;99.90;;;;;;5087680;28;20183;-81
2021/11/02 11:29:44;;;;;;;13.48;8.10;;;13.00;99.90;;;;;;5073857;28;20171;-81
2021/11/02 11:32:16;;;;;;;12.40;7.35;;;13.10;99.90;;;;;;5095944;28;20195;-82
2021/11/02 11:34:46;;;;;;;9.40;6.30;;;13.20;99.90;;;;;;5085969;28;20261;-80
2021/11/02 11:37:17;;;;;;;10.63;6.07;;;13.30;99.90;;;;;;5095186;28;20444;-81
2021/11/02 11:39:44;;;;;;;10.00;6.00;;;13.40;99.90;;;;;;5097527;28;20541;-82
2021/11/02 11:42:14;;;;;;;9.10;6.38;;;13.50;99.90;;;;;;5098318;28;20195;-82
2021/11/02 11:44:48;;;;;;;9.65;6.30;;;13.40;99.90;;;;;;5098967;28;20195;-82
2021/11/02 11:47:20;;;;;;;10.45;6.20;;;13.40;99.90;;;;;;5098297;28;20251;-81
2021/11/02 11:49:48;;;;;;;9.15;6.18;;;13.10;99.90;;;;;;5083393;28;20176;-80
2021/11/02 11:52:22;;;;;;;10.05;6.30;;;13.10;99.90;;;;;;5098493;28;20200;-81
2021/11/02 11:54:50;;;;;;;9.63;5.60;;;13.20;99.90;;;;;;5095717;28;20179;-81
2021/11/02 11:57:33;;;;;;;13.13;5.85;;;13.20;99.90;;;;;;5097927;28;20193;-82
2021/11/02 12:00:04;;;;;;;10.70;6.53;;;13.10;99.90;;;;;;5100162;28;20238;-82
2021/11/02 12:02:37;;;;;;;12.45;5.63;;;13.00;99.90;;;;;;5082181;28;20189;-82
2021/11/02 12:05:17;;;;;;;17.83;6.30;;;12.90;99.90;;;;;;5096970;28;20202;-81
2021/11/02 12:08:15;;;;;;;10.32;6.43;;;13.00;99.90;;;;;;5097827;28;20174;-82
2021/11/02 12:10:42;;;;;;;22.02;6.07;;;13.10;99.90;;;;;;5097172;28;20191;-82
2021/11/02 12:13:13;;;;;;;11.75;6.57;;;13.10;99.90;;;;;;5096448;28;20175;-82
2021/11/02 12:15:59;;;;;;;7.70;5.68;;;13.20;99.90;;;;;;5096360;28;20195;-81
2021/11/02 12:18:28;;;;;;;8.70;6.00;;;13.20;99.90;;;;;;5094248;28;20197;-82
2021/11/02 12:20:54;;;;;;;6.65;5.72;;;13.20;99.90;;;;;;5091363;28;20190;-81
2021/11/02 12:23:45;;;;;;;12.38;6.28;;;13.20;99.90;;;;;;5109527;28;20690;-81
2021/11/02 12:26:12;;;;;;;11.63;5.47;;;13.30;99.90;;;;;;5088740;28;20176;-81
2021/11/02 12:28:41;;;;;;;7.80;5.47;;;13.00;99.90;;;;;;5097629;28;20182;-83
2021/11/02 12:31:09;;;;;;;7.05;5.13;;;13.00;99.90;;;;;;5096711;28;20195;-82
2021/11/02 12:33:36;;;;;;;9.90;5.32;;;13.10;99.90;;;;;;5078572;28;20706;-82
2021/11/02 12:36:05;;;;;;;8.18;5.90;;;13.20;99.90;;;;;;5097893;28;20227;-83
2021/11/02 12:38:34;;;;;;;9.65;6.07;;;13.30;99.90;;;;;;5096951;28;20164;-81
2021/11/02 12:41:01;;;;;;;9.77;7.53;;;13.30;99.90;;;;;;5097292;28;20179;-82
2021/11/02 12:43:30;;;;;;;10.70;5.32;;;13.40;99.90;;;;;;5096236;28;20190;-81
2021/11/02 12:45:59;;;;;;;8.73;5.55;;;13.50;99.90;;;;;;5078937;28;20538;-83
2021/11/02 12:48:26;;;;;;;12.07;6.68;;;13.40;99.90;;;;;;5097258;28;20171;-80
2021/11/02 12:50:57;;;;;;;8.70;6.35;;;13.40;99.90;;;;;;5097981;28;20214;-82
2021/11/02 12:53:22;;;;;;;9.27;5.80;;;13.40;99.90;;;;;;5098728;28;20171;-83
2021/11/02 12:55:48;;;;;;;10.97;6.50;;;13.40;99.90;;;;;;5098837;28;20249;-82
2021/11/02 12:58:18;;;;;;;17.57;6.37;;;13.40;99.90;;;;;;5096716;28;20626;-82
2021/11/02 13:00:52;;;;;;;12.30;5.80;;;13.40;99.90;;;;;;5094278;28;20451;-82
2021/11/02 13:03:28;;;;;;;9.32;6.60;;;13.50;99.90;;;;;;5095081;28;20183;-83
2021/11/02 13:06:08;;;;;;;9.70;6.13;;;13.60;99.90;;;;;;5080654;28;20176;-82
2021/11/02 13:08:41;;;;;;;9.45;5.63;;;13.60;99.90;;;;;;5087739;28;20183;-84
2021/11/02 13:11:12;;;;;;;5.95;4.85;;;13.60;99.90;;;;;;5094886;28;20240;-83
2021/11/02 13:13:58;;;;;;;6.95;5.50;;;13.70;99.90;;;;;;5095789;28;20171;-82
2021/11/02 13:16:24;;;;;;;10.48;6.25;;;13.80;99.90;;;;;;5098268;28;20190;-83
2021/11/02 13:18:51;;;;;;;9.88;5.95;;;13.70;99.90;;;;;;5098463;28;20164;-83
2021/11/02 13:21:21;;;;;;;8.73;5.57;;;13.70;99.90;;;;;;5099342;28;20240;-83
2021/11/02 13:23:51;;;;;;;7.53;5.35;;;13.60;99.90;;;;;;5094911;28;20613;-82
2021/11/02 13:26:20;;;;;;;7.05;5.57;;;13.50;99.90;;;;;;5097439;28;20176;-81
2021/11/02 13:28:47;;;;;;;9.45;6.40;;;13.40;99.90;;;;;;5101222;28;20179;-82
2021/11/02 13:31:35;;;;;;;7.50;5.10;;;13.30;99.90;;;;;;5098561;28;20275;-81
2021/11/02 13:34:03;;;;;;;11.10;6.25;;;13.30;99.90;;;;;;5079768;28;20215;-80
2021/11/02 13:36:30;;;;;;;7.05;5.68;;;13.30;99.90;;;;;;5080580;28;20554;-80
2021/11/02 13:39:00;;;;;;;9.77;5.93;;;13.30;99.90;;;;;;5099849;28;20209;-80
2021/11/02 13:41:29;;;;;;;9.00;5.97;;;13.30;99.90;;;;;;5101152;28;20244;-81
2021/11/02 13:44:01;;;;;;;6.47;5.63;;;13.30;99.90;;;;;;5100352;28;20252;-82
2021/11/02 13:46:29;;;;;;;7.00;4.63;;;13.30;99.90;;;;;;5101040;28;20183;-81
2021/11/02 13:48:55;;;;;;;9.52;5.75;;;13.30;99.90;;;;;;5079032;28;20203;-80
2021/11/02 13:51:22;;;;;;;8.07;6.20;;;13.30;99.90;;;;;;5084226;28;20605;-80
2021/11/02 13:53:48;;;;;;;7.80;5.60;;;13.30;99.90;;;;;;5100097;28;20440;-81
2021/11/02 13:56:18;;;;;;;8.27;5.47;;;13.30;99.90;;;;;;5102928;28;20159;-81
2021/11/02 13:58:44;;;;;;;8.23;6.20;;;13.30;99.90;;;;;;5102918;28;20164;-81
2021/11/02 14:01:22;;;;;;;9.20;5.20;;;13.30;99.90;;;;;;5090930;28;20184;-80
2021/11/02 14:04:08;;;;;;;9.93;5.97;;;13.30;99.90;;;;;;5102915;28;20709;-82
2021/11/02 14:06:37;;;;;;;12.80;6.45;;;13.20;99.90;;;;;;5105650;28;20274;-81
2021/11/02 14:09:10;;;;;;;13.32;6.90;;;13.20;99.90;;;;;;5086719;28;20175;-82
2021/11/02 14:11:37;;;;;;;11.27;7.40;;;13.20;99.90;;;;;;5085502;28;20666;-82
2021/11/02 14:14:04;;;;;;;11.57;6.78;;;13.20;99.90;;;;;;5099532;28;20206;-81
2021/11/02 14:16:42;;;;;;;13.02;6.13;;;13.30;99.90;;;;;;5100855;28;20167;-81
2021/11/02 14:19:32;;;;;;;5.75;3.97;;;13.30;99.90;;;;;;5100897;28;20174;-83
2021/11/02 14:21:58;;;;;;;9.35;5.40;;;13.30;99.90;;;;;;5102628;28;20201;-82
2021/11/02 14:24:39;;;;;;;6.23;4.83;;;13.30;99.90;;;;;;5099795;28;20202;-83
2021/11/02 14:27:08;;;;;;;7.38;4.30;;;13.40;99.90;;;;;;5097635;28;20526;-83
2021/11/02 14:30:20;;;;;;;5.78;4.60;;;13.40;99.90;;;;;;5100064;28;20258;-82
2021/11/02 14:32:50;;;;;;;5.00;4.22;;;13.40;99.90;;;;;;5050272;28;20212;-83
2021/11/02 14:35:48;;;;;;;7.53;4.70;;;13.50;99.90;;;;;;5090067;28;20610;-82
2021/11/02 14:38:19;;;;;;;6.40;4.85;;;13.50;99.90;;;;;;5081673;28;20179;-83
2021/11/02 14:40:53;;;;;;;6.38;4.55;;;13.50;99.90;;;;;;5098306;28;20658;-82
2021/11/02 14:43:25;;;;;;;6.43;4.32;;;13.40;99.90;;;;;;5098388;28;20171;-83
2021/11/02 14:45:55;;;;;;;8.68;4.60;;;13.20;99.90;;;;;;5099122;28;20187;-84
2021/11/02 14:48:32;;;;;;;8.25;6.25;;;13.10;99.90;;;;;;5099137;28;20167;-81
2021/11/02 14:50:59;;;;;;;7.53;5.18;;;13.10;99.90;;;;;;5100126;28;20190;-82
2021/11/02 14:53:24;;;;;;;7.30;5.70;;;13.10;99.90;;;;;;5098784;28;20191;-82
2021/11/02 14:55:58;;;;;;;6.33;5.23;;;13.00;99.90;;;;;;5099637;28;20676;-82
2021/11/02 14:58:39;;;;;;;6.28;4.75;;;13.10;99.90;;;;;;5099889;28;20182;-82
2021/11/02 15:01:24;;;;;;;8.35;5.40;;;13.20;99.90;;;;;;5103190;28;20179;-82
2021/11/02 15:03:58;;;;;;;6.72;5.72;;;13.30;99.90;;;;;;5098023;28;20195;-82
2021/11/02 15:06:30;;;;;;;8.98;5.45;;;13.20;99.90;;;;;;5082397;28;20171;-82
2021/11/02 15:08:56;;;;;;;8.38;5.57;;;13.20;99.90;;;;;;5099909;28;20655;-81
2021/11/02 15:11:22;;;;;;;5.55;4.95;;;13.10;99.90;;;;;;5099664;28;20213;-83
2021/11/02 15:13:53;;;;;;;8.77;6.07;;;13.10;99.90;;;;;;5100014;28;20274;-82
2021/11/02 15:16:21;;;;;;;7.68;5.53;;;13.10;99.90;;;;;;5099472;28;20622;-83
2021/11/02 15:19:04;;;;;;;10.05;6.78;;;13.10;99.90;;;;;;5100607;28;20243;-84
2021/11/02 15:21:36;;;;;;;11.02;6.32;;;13.10;99.90;;;;;;5107342;28;20179;-82
2021/11/02 15:24:17;;;;;;;10.70;6.05;;;13.10;99.90;;;;;;5106556;28;20192;-82
2021/11/02 15:26:53;;;;;;;9.00;6.25;;;13.00;99.90;;;;;;5105498;28;20665;-82
2021/11/02 15:29:20;;;;;;;9.10;6.25;;;13.00;99.90;;;;;;5101182;28;20715;-82
2021/11/02 15:32:06;;;;;;;8.35;5.95;;;12.90;99.90;;;;;;5084388;28;20306;-83
2021/11/02 15:34:53;;;;;;;7.18;5.78;;;12.90;99.90;;;;;;5104089;28;20191;-82
2021/11/02 15:37:26;;;;;;;10.45;5.93;;;12.90;99.90;;;;;;5086369;28;20195;-82
2021/11/02 15:39:54;;;;;;;9.05;5.32;;;12.80;99.90;;;;;;5102208;28;20218;-81
2021/11/02 15:42:22;;;;;;;10.75;7.18;;;12.80;99.90;;;;;;5103653;28;20203;-83
2021/11/02 15:44:52;;;;;;;9.00;6.10;;;12.70;99.90;;;;;;5103534;28;20219;-82
2021/11/02 15:47:21;;;;;;;9.45;6.53;;;12.70;99.90;;;;;;5105215;28;20168;-85
2021/11/02 15:49:58;;;;;;;12.05;5.70;;;12.70;99.90;;;;;;5080810;28;20196;-82
2021/11/02 15:52:27;;;;;;;8.13;5.78;;;12.70;99.90;;;;;;5093972;28;20194;-83
2021/11/02 15:54:53;;;;;;;8.73;6.45;;;12.60;99.90;;;;;;5095745;28;20218;-83
2021/11/02 15:57:18;;;;;;;7.33;5.97;;;12.60;99.90;;;;;;5078218;28;20183;-82
2021/11/02 15:59:44;;;;;;;8.80;6.20;;;12.60;99.90;;;;;;5097720;28;20175;-82
2021/11/02 16:02:10;;;;;;;10.73;7.47;;;12.60;99.90;;;;;;5096822;28;20175;-82
2021/11/02 16:04:36;;;;;;;9.27;6.80;;;12.60;99.90;;;;;;5079433;28;20236;-81
2021/11/02 16:07:05;;;;;;;11.20;6.67;;;12.60;99.90;;;;;;5095574;28;20429;-82
2021/11/02 16:09:50;;;;;;;12.77;8.25;;;12.60;99.90;;;;;;5096222;28;20543;-81
2021/11/02 16:12:31;;;;;;;9.80;6.05;;;12.50;99.90;;;;;;5097951;28;20195;-81
2021/11/02 16:15:05;;;;;;;11.98;6.78;;;12.50;99.90;;;;;;5095867;28;20685;-82
2021/11/02 16:17:54;;;;;;;11.40;6.60;;;12.50;99.90;;;;;;5095338;28;20186;-82
2021/11/02 16:20:27;;;;;;;11.50;6.50;;;12.50;99.90;;;;;;5092786;28;20171;-83
2021/11/02 16:23:01;;;;;;;12.60;7.20;;;12.40;99.90;;;;;;5071505;28;20172;-82
2021/11/02 16:25:29;;;;;;;11.63;6.85;;;12.40;99.90;;;;;;5069634;28;20208;-83
2021/11/02 16:28:04;;;;;;;8.48;6.70;;;12.40;99.90;;;;;;5099055;28;20187;-85
2021/11/02 16:30:37;;;;;;;8.57;7.13;;;12.40;99.90;;;;;;5108440;28;20173;-87
2021/11/02 16:33:03;;;;;;;14.43;6.55;;;12.40;99.90;;;;;;5084071;28;20175;-86
2021/11/02 16:36:09;;;;;;;;;;;;;;;;;;;;;
2021/11/02 16:38:37;;;;;;;10.98;7.43;;;12.40;99.90;;;;;;5101151;28;20269;-86
2021/11/02 16:41:04;;;;;;;13.68;8.60;;;12.40;99.90;;;;;;5080914;28;20184;-86
2021/11/02 16:43:46;;;;;;;17.52;9.80;;;12.30;99.90;;;;;;5098563;28;20617;-87
2021/11/02 16:46:30;;;;;;;21.92;12.77;;;12.40;99.90;;;;;;5101697;28;20215;-86
2021/11/02 16:49:09;;;;;;;23.77;16.65;;;12.40;99.90;;;;;;5099488;28;20175;-88
2021/11/02 16:52:01;;;;;;;18.65;13.90;;;12.40;99.90;;;;;;5099586;28;20195;-84
2021/11/02 16:54:35;;;;;;;14.73;12.73;;;12.40;99.90;;;;;;5094156;28;20252;-84
2021/11/02 16:57:18;;;;;;;22.08;11.77;;;12.40;99.90;;;;;;5101013;28;20173;-86
2021/11/02 17:00:10;;;;;;;18.25;9.45;;;12.40;99.90;;;;;;5098481;28;20160;-85
2021/11/02 17:02:39;;;;;;;14.32;7.88;;;12.40;99.90;;;;;;5095184;28;20597;-85
2021/11/02 17:05:10;;;;;;;12.52;9.00;;;12.30;99.90;;;;;;5102785;28;20198;-85
2021/11/02 17:07:52;;;;;;;19.45;8.75;;;12.30;99.90;;;;;;5108732;28;20249;-86
2021/11/02 17:10:30;;;;;;;10.70;7.38;;;12.30;99.90;;;;;;5110833;28;20256;-84
2021/11/02 17:13:13;;;;;;;11.07;7.47;;;12.30;99.90;;;;;;5103605;28;20183;-84
2021/11/02 17:15:50;;;;;;;11.77;8.00;;;12.30;99.90;;;;;;5105605;28;20195;-85
2021/11/02 17:18:18;;;;;;;10.90;7.18;;;12.30;99.90;;;;;;5104681;28;20248;-86
2021/11/02 17:20:47;;;;;;;16.70;8.55;;;12.30;99.90;;;;;;5102477;28;20179;-85
2021/11/02 17:23:20;;;;;;;14.73;7.82;;;12.30;99.90;;;;;;5102655;28;20296;-86
2021/11/02 17:25:57;;;;;;;13.25;8.38;;;12.20;99.90;;;;;;5105982;28;20198;-84
2021/11/02 17:28:25;;;;;;;13.57;9.63;;;12.30;99.90;;;;;;5103853;28;20175;-85
2021/11/02 17:30:51;;;;;;;12.95;9.25;;;12.30;99.90;;;;;;5105835;28;20191;-87
2021/11/02 17:33:18;;;;;;;11.43;7.83;;;12.30;99.90;;;;;;5102517;28;20214;-82
2021/11/02 17:35:49;;;;;;;14.02;8.77;;;12.30;99.90;;;;;;5104715;28;20201;-83
2021/11/02 17:38:15;;;;;;;13.00;8.30;;;12.40;99.90;;;;;;5105208;28;20541;-81
2021/11/02 17:40:42;;;;;;;15.17;8.33;;;12.40;99.90;;;;;;5103761;28;20187;-82
2021/11/02 17:43:07;;;;;;;16.55;9.32;;;12.40;99.90;;;;;;5105403;28;20677;-82
2021/11/02 17:45:39;;;;;;;12.87;9.10;;;12.40;99.90;;;;;;5106109;28;20183;-82
2021/11/02 17:48:06;;;;;;;13.90;9.05;;;12.40;99.90;;;;;;5088045;28;20179;-82
2021/11/02 17:50:34;;;;;;;12.32;8.50;;;12.40;99.90;;;;;;5104997;28;20179;-82
2021/11/02 17:53:00;;;;;;;11.40;8.30;;;12.40;99.90;;;;;;5103916;28;20242;-81